Terminal Aerodrome Forecast
Issued by NWS

Home | Current Version | Previous Version | Graphics & Text | Print | Product List | Glossary On
Versions: 1 2 3 4 5 6 7 8 9 10 11 12 13 14
000
FTUS43 KGRB 201100
TAFMTW
TAF
KMTW 201138Z 2012/2112 29007KT P6SM SCT035 BKN060
     FM201700 32010G17KT P6SM BKN035
     FM210200 35008KT P6SM SCT040
     FM210600 36009KT P6SM BKN020=

USA.gov is the U.S. government's official web portal to all federal, state and local government web resources and services.